Flight Track Log - Related Links

Times and Time Zones

All times are in EDT time to prevent confusion due to time zone crossing. See the N100MJ flight status page for this flight to view local times or setup timezone preferences in your user account.


Time Position Orientation Groundspeed Altitude Reporting Facility
EDT Latitude Longitude Course Direction KTS MPH feet Rate Location/Type
Thu 09:50:06 AM 35.9050 -78.7794 348° North 153 176 1,200  Level Washington Center
Thu 09:51:00 AM 35.9403 -78.7886 348° North 157 181 1,600 524 Climbing Washington Center
Thu 09:51:49 AM 35.9756 -78.7978 348° North 161 185 2,100 724 Climbing Washington Center
Thu 09:52:56 AM 36.0294 -78.8078 351° North 166 191 3,000 656 Climbing Washington Center
Thu 09:53:57 AM 36.0756 -78.8044 North 172 198 3,500 590 Climbing Washington Center
Thu 09:54:58 AM 36.1136 -78.7778 30° Northeast 168 193 4,200 689 Climbing Washington Center
Thu 09:55:59 AM 36.1542 -78.7458 32° Northeast 162 186 4,900 645 Climbing Washington Center
Thu 09:56:59 AM 36.1883 -78.7111 39° Northeast 164 189 5,500 496 Climbing Washington Center
Thu 09:58:00 AM 36.2189 -78.6661 50° Northeast 169 194 5,900 350 Climbing Washington Center
Thu 09:58:42 AM 36.2425 -78.6361 46° Northeast 170 196 6,100 400 Climbing Washington Center
Thu 09:59:00 AM 36.2553 -78.6261 32° Northeast 172 198 6,300 590 Climbing Washington Center
Thu 09:59:43 AM 36.2792 -78.5911 50° Northeast 170 196 6,700 689 Climbing Washington Center
Thu 10:00:01 AM 36.2897 -78.5811 37° Northeast 171 197 7,000 689 Climbing Washington Center
Thu 10:00:44 AM 36.3114 -78.5511 48° Northeast 170 196 7,400 689 Climbing Washington Center
Thu 10:01:02 AM 36.3200 -78.5386 49° Northeast 171 197 7,700 600 Climbing Washington Center
Thu 10:01:44 AM 36.3481 -78.5061 43° Northeast 170 196 8,000 660 Climbing Washington Center
Thu 10:02:42 AM 36.3761 -78.4683 47° Northeast 191 220 8,800 712 Climbing Washington Center
Thu 10:03:42 AM 36.4042 -78.4333 45° Northeast 179 206 9,400 694 Climbing Washington Center
Thu 10:04:43 AM 36.4450 -78.3831 45° Northeast 179 206 10,200 694 Climbing Washington Center
Thu 10:05:43 AM 36.4792 -78.3378 47° Northeast 179 206 10,800 397 Climbing Washington Center
Thu 10:06:44 AM 36.5181 -78.2903 44° Northeast 184 212 11,000 101 Climbing Washington Center
Thu 10:07:42 AM 36.5544 -78.2397 48° Northeast 189 217 11,000  Level Washington Center
Thu 10:08:43 AM 36.5953 -78.1919 43° Northeast 189 217 11,000  Level Washington Center
Thu 10:09:44 AM 36.6317 -78.1439 47° Northeast 189 217 11,000  Level Washington Center
Thu 10:10:44 AM 36.6683 -78.0908 49° Northeast 189 217 11,000  Level Washington Center
Thu 10:11:42 AM 36.7089 -78.0428 44° Northeast 189 217 11,000  Level Washington Center
Thu 10:12:42 AM 36.7453 -77.9947 47° Northeast 189 217 11,000  Level Washington Center
Thu 10:13:43 AM 36.7839 -77.9442 46° Northeast 189 217 11,000  Level Washington Center
Thu 10:14:43 AM 36.8225 -77.8958 45° Northeast 189 217 11,000  Level Washington Center
Thu 10:15:44 AM 36.8669 -77.8558 36° Northeast 189 217 11,000  Level Washington Center
Thu 10:16:42 AM 36.9114 -77.8206 32° Northeast 189 217 11,000  Level Washington Center
Thu 10:17:43 AM 36.9603 -77.7806 33° Northeast 194 223 11,000  Level Washington Center
Thu 10:18:43 AM 37.0025 -77.7428 36° Northeast 194 223 11,000  Level Washington Center
Thu 10:19:44 AM 37.0469 -77.7075 32° Northeast 194 223 11,000  Level Washington Center
Thu 10:20:44 AM 37.0958 -77.6672 33° Northeast 194 223 11,000  Level Washington Center
Thu 10:21:41 AM 37.1403 -77.6267 36° Northeast 189 217 11,000  Level Washington Center
Thu 10:22:43 AM 37.1867 -77.5861 35° Northeast 189 217 11,000  Level Washington Center
Thu 10:23:44 AM 37.2311 -77.5508 32° Northeast 189 217 11,000  Level Washington Center
Thu 10:24:44 AM 37.2756 -77.5103 36° Northeast 189 217 11,000  Level Washington Center
Thu 10:25:41 AM 37.3222 -77.4747 31° Northeast 189 217 11,000  Level Washington Center
Thu 10:26:42 AM 37.3667 -77.4342 36° Northeast 189 217 11,000  Level Washington Center
Thu 10:27:43 AM 37.4131 -77.3933 35° Northeast 189 217 11,000  Level Washington Center
Thu 10:28:44 AM 37.4575 -77.3525 36° Northeast 189 217 11,000  Level Washington Center
Thu 10:29:41 AM 37.5039 -77.3169 31° Northeast 189 217 11,000  Level Washington Center
Thu 10:30:42 AM 37.5461 -77.2733 39° Northeast 189 217 11,000  Level Washington Center
Thu 10:31:43 AM 37.5886 -77.2297 39° Northeast 194 223 11,000  Level Washington Center
Thu 10:32:43 AM 37.6308 -77.1861 39° Northeast 194 223 11,000  Level Washington Center
Thu 10:33:44 AM 37.6731 -77.1425 39° Northeast 194 223 11,000  Level Washington Center
Thu 10:34:44 AM 37.7175 -77.0986 38° Northeast 194 223 11,000  Level Washington Center
Thu 10:35:43 AM 37.7597 -77.0550 39° Northeast 194 223 11,000  Level Washington Center
Thu 10:36:43 AM 37.8042 -77.0111 38° Northeast 194 223 11,000  Level Washington Center
Thu 10:37:42 AM 37.8483 -76.9672 38° Northeast 194 223 11,000  Level Washington Center
Thu 10:38:42 AM 37.8906 -76.9206 41° Northeast 194 223 11,000  Level Washington Center
Thu 10:39:43 AM 37.9347 -76.8767 38° Northeast 194 223 11,000  Level Washington Center
Thu 10:40:44 AM 37.9750 -76.8325 41° Northeast 194 223 11,000  Level Washington Center
Thu 10:41:42 AM 38.0108 -76.7778 50° Northeast 189 217 11,000  Level Washington Center
Thu 10:42:43 AM 38.0469 -76.7308 46° Northeast 189 217 11,000  Level Washington Center
Thu 10:43:44 AM 38.0828 -76.6761 50° Northeast 189 217 11,000  Level Washington Center
Thu 10:44:42 AM 38.1228 -76.6292 43° Northeast 189 217 11,000  Level Washington Center
Thu 10:45:42 AM 38.1586 -76.5794 47° Northeast 189 217 11,000  Level Washington Center
Thu 10:46:43 AM 38.1947 -76.5244 50° Northeast 189 217 11,000  Level Washington Center
Thu 10:47:43 AM 38.2306 -76.4744 48° Northeast 189 217 11,000  Level Washington Center
Thu 10:48:44 AM 38.2683 -76.4222 47° Northeast 189 217 11,000  Level Washington Center
Thu 10:49:44 AM 38.3083 -76.3722 44° Northeast 189 217 11,000 -51 Level Washington Center
Thu 10:50:42 AM 38.3503 -76.3408 30° Northeast 183 211 10,900  Descending Washington Center
Thu 10:51:43 AM 38.3942 -76.3017 35° Northeast 183 211 11,000  Climbing Washington Center
Thu 10:52:43 AM 38.4278 -76.2703 36° Northeast 188 216 10,900  Descending Washington Center
Thu 10:53:44 AM 38.4822 -76.2175 37° Northeast 188 216 11,000 50 Climbing Washington Center
Thu 10:54:44 AM 38.5283 -76.1808 32° Northeast 193 222 11,000  Level Washington Center
Thu 10:55:42 AM 38.5703 -76.1386 38° Northeast 193 222 11,000 -50 Level Washington Center
Thu 10:56:44 AM 38.6164 -76.0911 39° Northeast 199 229 10,900  Descending Washington Center
Thu 10:57:42 AM 38.6581 -76.0542 35° Northeast 199 229 11,000 50 Climbing Washington Center
Thu 10:58:43 AM 38.7019 -76.0119 37° Northeast 199 229 11,000 49 Level Washington Center
Thu 10:59:44 AM 38.7458 -75.9722 35° Northeast 199 229 11,100 198 Climbing Washington Center
Thu 11:00:44 AM 38.7794 -75.9272 46° Northeast 194 223 11,400 153 Climbing Washington Center
Thu 11:01:42 AM 38.8128 -75.8742 51° Northeast 184 212 11,400  Level Washington Center
Thu 11:02:42 AM 38.8464 -75.8208 51° Northeast 184 212 11,400  Level Washington Center
Thu 11:03:43 AM 38.8903 -75.7811 35° Northeast 184 212 11,400 50 Level Washington Center
Thu 11:04:43 AM 38.9217 -75.7197 57° Northeast 189 217 11,500  Climbing Washington Center
Thu 11:05:43 AM 38.9592 -75.6692 46° Northeast 194 223 11,400 -50 Descending Washington Center
Thu 11:06:44 AM 38.9967 -75.6156 48° Northeast 188 216 11,400  Level Washington Center
Thu 11:07:42 AM 39.0342 -75.5650 46° Northeast 188 216 11,400  Level Washington Center
Thu 11:08:42 AM 39.0697 -75.5086 51° Northeast 188 216 11,400  Level Washington Center
Thu 11:09:43 AM 39.1069 -75.4606 45° Northeast 188 216 11,400  Level Washington Center
Thu 11:10:44 AM 39.1444 -75.4069 48° Northeast 188 216 11,400  Level Washington Center
Thu 11:11:42 AM 39.1819 -75.3533 48° Northeast 188 216 11,400  Level Washington Center
Thu 11:12:43 AM 39.2153 -75.3050 48° Northeast 188 216 11,400  Level Washington Center
Thu 11:13:44 AM 39.2525 -75.2486 50° Northeast 193 222 11,400 50 Level Washington Center
Thu 11:14:42 AM 39.2919 -75.1947 47° Northeast 193 222 11,500  Climbing Washington Center
Thu 11:15:42 AM 39.3272 -75.1408 50° Northeast 193 222 11,400 -50 Descending Washington Center
Thu 11:16:43 AM 39.3644 -75.0869 48° Northeast 193 222 11,400 50 Level Washington Center
Thu 11:17:43 AM 39.4039 -75.0328 47° Northeast 198 228 11,500  Climbing Washington Center
Thu 11:18:44 AM 39.4411 -74.9789 48° Northeast 198 228 11,400 -50 Descending Washington Center
Thu 11:19:44 AM 39.4783 -74.9247 48° Northeast 198 228 11,400  Level Washington Center
Thu 11:21:18 AM 39.5389 -74.8358 49° Northeast 194 223 11,400 39 Level New York Center
Thu 11:22:18 AM 39.5783 -74.7867 44° Northeast 200 230 11,500 51 Climbing New York Center
Thu 11:23:16 AM 39.6217 -74.7381 41° Northeast 200 230 11,500  Level New York Center
Thu 11:24:16 AM 39.6647 -74.6947 38° Northeast 200 230 11,500  Level New York Center
Thu 11:25:17 AM 39.7103 -74.6433 41° Northeast 200 230 11,500  Level New York Center
Thu 11:26:17 AM 39.7533 -74.5997 38° Northeast 200 230 11,500  Level New York Center
Thu 11:27:16 AM 39.7986 -74.5536 38° Northeast 200 230 11,500  Level New York Center
Thu 11:28:16 AM 39.8417 -74.5100 38° Northeast 200 230 11,500  Level New York Center
Thu 11:29:17 AM 39.8869 -74.4636 38° Northeast 200 230 11,500  Level New York Center
Thu 11:30:18 AM 39.9322 -74.4172 38° Northeast 200 230 11,500  Level New York Center
Thu 11:31:18 AM 39.9794 -74.3683 38° Northeast 200 230 11,500  Level New York Center
Thu 11:32:16 AM 40.0247 -74.3247 36° Northeast 195 224 11,500  Level New York Center
Thu 11:33:16 AM 40.0656 -74.2806 40° Northeast 200 230 11,500  Level New York Center
Thu 11:34:16 AM 40.1108 -74.2339 38° Northeast 200 230 11,500  Level New York Center
Thu 11:35:16 AM 40.1600 -74.1850 37° Northeast 200 230 11,500 -50 Level New York Center
Thu 11:36:16 AM 40.2050 -74.1408 37° Northeast 200 230 11,400  Descending New York Center
Thu 11:37:16 AM 40.2503 -74.0942 38° Northeast 200 230 11,500 50 Climbing New York Center
Thu 11:38:17 AM 40.2953 -74.0500 37° Northeast 200 230 11,500  Level New York Center
Thu 11:39:17 AM 40.3339 -74.0083 39° Northeast 200 230 11,500  Level New York Center
Thu 11:40:17 AM 40.3831 -73.9589 37° Northeast 195 224 11,500  Level New York Center
Thu 11:40:59 AM 40.4167 -73.9167 44° Northeast 200 230 11,500  Level New York TRACON
Thu 11:41:59 AM 40.4667 -73.8833 27° Northeast 199 229 11,500  Level New York TRACON
Thu 11:42:59 AM 40.5000 -73.8333 49° Northeast 201 231 11,500  Level New York TRACON
Thu 11:43:59 AM 40.5333 -73.7667 57° Northeast 205 236 11,500  Level New York TRACON
Thu 11:44:59 AM 40.5667 -73.7167 49° Northeast 215 247 11,500  Level New York TRACON
Thu 11:45:59 AM 40.6000 -73.6500 57° Northeast 210 242 11,500  Level New York TRACON
Thu 11:46:59 AM 40.6333 -73.5833 57° Northeast 204 235 11,500  Level New York TRACON
Thu 11:47:59 AM 40.6667 -73.5167 57° Northeast 203 234 11,500  Level New York TRACON
Thu 11:48:59 AM 40.6833 -73.4667 66° East 199 229 11,500  Level New York TRACON
Thu 11:49:54 AM 40.7167 -73.4000 57° Northeast 201 231 11,500  Level New York TRACON
Thu 11:50:54 AM 40.7500 -73.3333 57° Northeast 202 232 11,500  Level New York TRACON
Thu 11:51:54 AM 40.7667 -73.2667 72° East 197 227 11,500  Level New York TRACON
Thu 11:52:54 AM 40.8000 -73.2167 49° Northeast 193 222 11,500  Level New York TRACON
Thu 11:53:54 AM 40.8333 -73.1500 57° Northeast 210 242 11,500  Level New York TRACON
Thu 11:54:59 AM 40.8500 -73.0833 72° East 232 267 11,500  Level New York TRACON
Thu 11:55:54 AM 40.8833 -73.0167 57° Northeast 194 223 11,500  Level New York TRACON
Thu 11:56:59 AM 40.9167 -72.9500 56° Northeast 196 226 11,500  Level New York TRACON
Thu 11:57:54 AM 40.9333 -72.9000 66° East 198 228 11,500  Level New York TRACON
Thu 12:00:35 PM 41.0119 -72.7400 57° Northeast 185 213 11,500  Level Boston Center
Thu 12:01:35 PM 41.0456 -72.6603 61° Northeast 190 219 11,500 -50 Level Boston Center
Thu 12:02:35 PM 41.0686 -72.5969 64° Northeast 190 219 11,400 -50 Descending Boston Center
Thu 12:03:35 PM 41.0978 -72.5311 60° Northeast 195 224 11,400  Level Boston Center
Thu 12:04:35 PM 41.1250 -72.4650 61° Northeast 195 224 11,400  Level Boston Center
Thu 12:05:35 PM 41.1478 -72.3989 65° Northeast 195 224 11,400  Level Boston Center
Thu 12:06:35 PM 41.1708 -72.3325 65° Northeast 195 224 11,400  Level Boston Center
Thu 12:07:35 PM 41.1914 -72.2608 69° East 195 224 11,400  Level Boston Center
Thu 12:08:35 PM 41.2081 -72.1944 72° East 195 224 11,400  Level Boston Center
Thu 12:09:35 PM 41.2267 -72.1256 70° East 190 219 11,400  Level Boston Center
Thu 12:10:35 PM 41.2453 -72.0508 72° East 190 219 11,400  Level Boston Center
Thu 12:11:35 PM 41.2617 -71.9817 72° East 190 219 11,400  Level Boston Center
Thu 12:12:35 PM 41.2800 -71.9125 71° East 190 219 11,400  Level Boston Center
Thu 12:13:35 PM 41.2944 -71.8517 72° East 190 219 11,400 -156 Level Boston Center
Thu 12:15:09 PM 41.3186 -71.7325 75° East 201 231 11,000 -240 Descending Boston Center
Thu 12:15:40 PM 41.3267 -71.7019 71° East 200 230 10,900 -330 Descending Boston Center
Thu 12:16:40 PM 41.3408 -71.6300 75° East 201 231 10,500 -347 Descending Boston Center
Thu 12:17:41 PM 41.3592 -71.5522 73° East 199 229 10,200 -328 Descending Boston Center
Thu 12:18:48 PM 41.3750 -71.4775 74° East 198 228 9,800 -328 Descending Boston Center
Thu 12:19:49 PM 41.3892 -71.4081 75° East 197 227 9,500 -310 Descending Boston Center
Thu 12:20:44 PM 41.4031 -71.3442 74° East 196 226 9,200 -310 Descending Boston Center
Thu 12:21:45 PM 41.4211 -71.2747 71° East 194 223 8,900 -283 Descending Boston Center
Thu 12:22:51 PM 41.4392 -71.1997 72° East 190 219 8,600 -331 Descending Boston Center
Thu 12:23:52 PM 41.4528 -71.1328 75° East 186 214 8,200 -393 Descending Boston Center
Thu 12:25:00 PM 41.4271 -71.0540 77° East  Level FlightAware Approximate
Thu 12:32:00 PM 41.5416 -70.5893 74° East  Level FlightAware Approximate
Thu 12:33:00 PM 41.5577 -70.5219 70° East  Level FlightAware Approximate
Thu 12:34:00 PM 41.5758 -70.4555 70° East  Level FlightAware Approximate
Thu 12:35:00 PM 41.5939 -70.3890 70° East  Level FlightAware Approximate
Thu 12:36:00 PM 41.6100 -70.3216 73° East  Level FlightAware Approximate
Thu 12:37:00 PM 41.6251 -70.2537 73° East  Level FlightAware Approximate
Thu 12:38:00 PM 41.6373 -70.1849 80° East  Level FlightAware Approximate
Thu 12:39:00 PM 41.6460 -70.1151 80° East  Level FlightAware Approximate
Thu 12:40:00 PM 41.6618 -70.0480 66° East  Level FlightAware Approximate
Thu 12:41:00 PM 41.6833 -69.9833 66° East  Level FlightAware Approximate
Thu 12:42:00 PM 41.6883 -69.9896 66° East  Level Estimated
Thu 12:43:00 PM 41.6833 -69.9833 66° East  Level FlightAware Approximate
Thu 12:44:00 PM 41.6883 -69.9896 66° East  Level Estimated
Thu 12:45:00 PM 41.6833 -69.9833 66° East  Level FlightAware Approximate
Thu 12:46:00 PM 41.6883 -69.9896 66° East  Level Estimated
Thu 12:47:00 PM 41.6833 -69.9833 66° East  Level FlightAware Approximate
Thu 12:48:00 PM 41.6883 -69.9896 66° East  Level Estimated
Thu 12:49:00 PM 41.6833 -69.9833 66° East  Level FlightAware Approximate
Thu 12:50:00 PM 41.6883 -69.9896 66° East  Level Estimated
Thu 12:51:00 PM 41.6833 -69.9833 66° East  Level FlightAware Approximate

Login

Don't have an account? Register now (free) for customized features, flight alerts, and more!